Aviation Digital Data Service (ADDS)

Output produced by METARs form (1037 UTC 07 December 2022)
found at http://www.aviationweather.gov/metar/data/
 
METAR text: RJFR 071000Z 27006KT 240V300 9999 FEW035 SCT050 12/03 Q1023
Conditions at: RJFR (KITAKYUSHU/KOKUR, JP) observed 1000 UTC 07 December 2022
Temperature: 12.0°C (54°F)
Dewpoint: 3.0°C (37°F) [RH = 54%]
Pressure (altimeter): 30.21 inches Hg (1023.0 mb)
Winds: from the W (270 degrees) at 7 MPH (6 knots; 3.1 m/s)
Visibility: 6 or more miles (10+ km)
Ceiling: at least 12,000 feet AGL
Clouds: few clouds at 3500 feet AGL
scattered clouds at 5000 feet AGL
Weather: no significant weather observed at this time

METAR text: RJFR 070900Z 28011KT 9999 FEW035 12/04 Q1023
Conditions at: RJFR (KITAKYUSHU/KOKUR, JP) observed 0900 UTC 07 December 2022
Temperature: 12.0°C (54°F)
Dewpoint: 4.0°C (39°F) [RH = 58%]
Pressure (altimeter): 30.21 inches Hg (1023.0 mb)
Winds: from the W (280 degrees) at 13 MPH (11 knots; 5.7 m/s)
Visibility: 6 or more miles (10+ km)
Ceiling: at least 12,000 feet AGL
Clouds: few clouds at 3500 feet AGL
Weather: no significant weather observed at this time

METAR text: RJFR 070805Z 28016G28KT 9999 FEW035 12/03 Q1022 RMK 1CU035 A3019
Conditions at: RJFR (KITAKYUSHU/KOKUR, JP) observed 0805 UTC 07 December 2022
Temperature: 12.0°C (54°F)
Dewpoint: 3.0°C (37°F) [RH = 54%]
Pressure (altimeter): 30.18 inches Hg (1022.0 mb)
Winds: from the W (280 degrees) at 18 MPH (16 knots; 8.2 m/s)
gusting to 32 MPH (28 knots; 14.4 m/s)
Visibility: 6 or more miles (10+ km)
Ceiling: at least 12,000 feet AGL
Clouds: few clouds at 3500 feet AGL
Weather: no significant weather observed at this time

METAR text: RJFR 070800Z 28015KT 9999 FEW035 12/04 Q1022
Conditions at: RJFR (KITAKYUSHU/KOKUR, JP) observed 0800 UTC 07 December 2022
Temperature: 12.0°C (54°F)
Dewpoint: 4.0°C (39°F) [RH = 58%]
Pressure (altimeter): 30.18 inches Hg (1022.0 mb)
Winds: from the W (280 degrees) at 17 MPH (15 knots; 7.7 m/s)
Visibility: 6 or more miles (10+ km)
Ceiling: at least 12,000 feet AGL
Clouds: few clouds at 3500 feet AGL
Weather: no significant weather observed at this time

METAR text: RJFR 070700Z 27018KT 9999 FEW030 13/03 Q1021
Conditions at: RJFR (KITAKYUSHU/KOKUR, JP) observed 0700 UTC 07 December 2022
Temperature: 13.0°C (55°F)
Dewpoint: 3.0°C (37°F) [RH = 51%]
Pressure (altimeter): 30.15 inches Hg (1021.0 mb)
Winds: from the W (270 degrees) at 21 MPH (18 knots; 9.3 m/s)
Visibility: 6 or more miles (10+ km)
Ceiling: at least 12,000 feet AGL
Clouds: few clouds at 3000 feet AGL
Weather: no significant weather observed at this time

METAR text: RJFR 070642Z 27016G27KT 9999 FEW030 SCT045 13/02 Q1021 RMK 1CU030 3CU045 A3017
Conditions at: RJFR (KITAKYUSHU/KOKUR, JP) observed 0642 UTC 07 December 2022
Temperature: 13.0°C (55°F)
Dewpoint: 2.0°C (36°F) [RH = 47%]
Pressure (altimeter): 30.15 inches Hg (1021.0 mb)
Winds: from the W (270 degrees) at 18 MPH (16 knots; 8.2 m/s)
gusting to 31 MPH (27 knots; 13.9 m/s)
Visibility: 6 or more miles (10+ km)
Ceiling: at least 12,000 feet AGL
Clouds: few clouds at 3000 feet AGL
scattered clouds at 4500 feet AGL
Weather: no significant weather observed at this time

METAR text: RJFR 070600Z 26018KT 9999 FEW030 SCT045 13/03 Q1021
Conditions at: RJFR (KITAKYUSHU/KOKUR, JP) observed 0600 UTC 07 December 2022
Temperature: 13.0°C (55°F)
Dewpoint: 3.0°C (37°F) [RH = 51%]
Pressure (altimeter): 30.15 inches Hg (1021.0 mb)
Winds: from the W (260 degrees) at 21 MPH (18 knots; 9.3 m/s)
Visibility: 6 or more miles (10+ km)
Ceiling: at least 12,000 feet AGL
Clouds: few clouds at 3000 feet AGL
scattered clouds at 4500 feet AGL
Weather: no significant weather observed at this time

METAR text: RJFR 070500Z 28012G22KT 9999 FEW030 SCT045 BKN/// 13/04 Q1022
Conditions at: RJFR (KITAKYUSHU/KOKUR, JP) observed 0500 UTC 07 December 2022
Temperature: 13.0°C (55°F)
Dewpoint: 4.0°C (39°F) [RH = 54%]
Pressure (altimeter): 30.18 inches Hg (1022.0 mb)
Winds: from the W (280 degrees) at 14 MPH (12 knots; 6.2 m/s)
gusting to 25 MPH (22 knots; 11.3 m/s)
Visibility: 6 or more miles (10+ km)
Ceiling: at least 12,000 feet AGL
Clouds: few clouds at 3000 feet AGL
scattered clouds at 4500 feet AGL
Weather: no significant weather observed at this time

METAR text: RJFR 070400Z 27013KT 9999 FEW025 SCT045 BKN/// 12/02 Q1022
Conditions at: RJFR (KITAKYUSHU/KOKUR, JP) observed 0400 UTC 07 December 2022
Temperature: 12.0°C (54°F)
Dewpoint: 2.0°C (36°F) [RH = 50%]
Pressure (altimeter): 30.18 inches Hg (1022.0 mb)
Winds: from the W (270 degrees) at 15 MPH (13 knots; 6.7 m/s)
Visibility: 6 or more miles (10+ km)
Ceiling: at least 12,000 feet AGL
Clouds: few clouds at 2500 feet AGL
scattered clouds at 4500 feet AGL
Weather: no significant weather observed at this time

METAR text: RJFR 070300Z 26013KT 9999 FEW030 BKN040 BKN/// 12/02 Q1023
Conditions at: RJFR (KITAKYUSHU/KOKUR, JP) observed 0300 UTC 07 December 2022
Temperature: 12.0°C (54°F)
Dewpoint: 2.0°C (36°F) [RH = 50%]
Pressure (altimeter): 30.21 inches Hg (1023.0 mb)
Winds: from the W (260 degrees) at 15 MPH (13 knots; 6.7 m/s)
Visibility: 6 or more miles (10+ km)
Ceiling: 4000 feet AGL
Clouds: few clouds at 3000 feet AGL
broken clouds at 4000 feet AGL
Weather: no significant weather observed at this time

METAR text: RJFR 070200Z 29012KT 9999 FEW030 SCT040 BKN/// 12/02 Q1024
Conditions at: RJFR (KITAKYUSHU/KOKUR, JP) observed 0200 UTC 07 December 2022
Temperature: 12.0°C (54°F)
Dewpoint: 2.0°C (36°F) [RH = 50%]
Pressure (altimeter): 30.24 inches Hg (1024.0 mb)
Winds: from the WNW (290 degrees) at 14 MPH (12 knots; 6.2 m/s)
Visibility: 6 or more miles (10+ km)
Ceiling: at least 12,000 feet AGL
Clouds: few clouds at 3000 feet AGL
scattered clouds at 4000 feet AGL
Weather: no significant weather observed at this time

METAR text: RJFR 070100Z 27011KT 240V310 9999 FEW030 SCT040 BKN/// 12/01 Q1024
Conditions at: RJFR (KITAKYUSHU/KOKUR, JP) observed 0100 UTC 07 December 2022
Temperature: 12.0°C (54°F)
Dewpoint: 1.0°C (34°F) [RH = 47%]
Pressure (altimeter): 30.24 inches Hg (1024.0 mb)
Winds: from the W (270 degrees) at 13 MPH (11 knots; 5.7 m/s)
Visibility: 6 or more miles (10+ km)
Ceiling: at least 12,000 feet AGL
Clouds: few clouds at 3000 feet AGL
scattered clouds at 4000 feet AGL
Weather: no significant weather observed at this time

METAR text: RJFR 070000Z 26011KT 9999 FEW035 SCT050 BKN/// 10/02 Q1024
Conditions at: RJFR (KITAKYUSHU/KOKUR, JP) observed 0000 UTC 07 December 2022
Temperature: 10.0°C (50°F)
Dewpoint: 2.0°C (36°F) [RH = 57%]
Pressure (altimeter): 30.24 inches Hg (1024.0 mb)
Winds: from the W (260 degrees) at 13 MPH (11 knots; 5.7 m/s)
Visibility: 6 or more miles (10+ km)
Ceiling: at least 12,000 feet AGL
Clouds: few clouds at 3500 feet AGL
scattered clouds at 5000 feet AGL
Weather: no significant weather observed at this time

METAR text: RJFR 062300Z 25013KT 9999 FEW035 BKN050 BKN/// 10/01 Q1023
Conditions at: RJFR (KITAKYUSHU/KOKUR, JP) observed 2300 UTC 06 December 2022
Temperature: 10.0°C (50°F)
Dewpoint: 1.0°C (34°F) [RH = 53%]
Pressure (altimeter): 30.21 inches Hg (1023.0 mb)
Winds: from the WSW (250 degrees) at 15 MPH (13 knots; 6.7 m/s)
Visibility: 6 or more miles (10+ km)
Ceiling: 5000 feet AGL
Clouds: few clouds at 3500 feet AGL
broken clouds at 5000 feet AGL
Weather: no significant weather observed at this time

METAR text: RJFR 062200Z 26011KT 9999 FEW030 BKN045 BKN/// 10/02 Q1023
Conditions at: RJFR (KITAKYUSHU/KOKUR, JP) observed 2200 UTC 06 December 2022
Temperature: 10.0°C (50°F)
Dewpoint: 2.0°C (36°F) [RH = 57%]
Pressure (altimeter): 30.21 inches Hg (1023.0 mb)
Winds: from the W (260 degrees) at 13 MPH (11 knots; 5.7 m/s)
Visibility: 6 or more miles (10+ km)
Ceiling: 4500 feet AGL
Clouds: few clouds at 3000 feet AGL
broken clouds at 4500 feet AGL
Weather: no significant weather observed at this time

METAR text: RJFR 062100Z 26010KT 9999 FEW030 BKN050 09/02 Q1022
Conditions at: RJFR (KITAKYUSHU/KOKUR, JP) observed 2100 UTC 06 December 2022
Temperature: 9.0°C (48°F)
Dewpoint: 2.0°C (36°F) [RH = 61%]
Pressure (altimeter): 30.18 inches Hg (1022.0 mb)
Winds: from the W (260 degrees) at 12 MPH (10 knots; 5.1 m/s)
Visibility: 6 or more miles (10+ km)
Ceiling: 5000 feet AGL
Clouds: few clouds at 3000 feet AGL
broken clouds at 5000 feet AGL
Weather: no significant weather observed at this time

METAR text: RJFR 062000Z 26009KT 9999 FEW030 BKN050 09/01 Q1022
Conditions at: RJFR (KITAKYUSHU/KOKUR, JP) observed 2000 UTC 06 December 2022
Temperature: 9.0°C (48°F)
Dewpoint: 1.0°C (34°F) [RH = 57%]
Pressure (altimeter): 30.18 inches Hg (1022.0 mb)
Winds: from the W (260 degrees) at 10 MPH (9 knots; 4.6 m/s)
Visibility: 6 or more miles (10+ km)
Ceiling: 5000 feet AGL
Clouds: few clouds at 3000 feet AGL
broken clouds at 5000 feet AGL
Weather: no significant weather observed at this time

METAR text: RJFR 061900Z 25009KT 9999 FEW030 BKN050 09/00 Q1022
Conditions at: RJFR (KITAKYUSHU/KOKUR, JP) observed 1900 UTC 06 December 2022
Temperature: 9.0°C (48°F)
Dewpoint: 0.0°C (32°F) [RH = 53%]
Pressure (altimeter): 30.18 inches Hg (1022.0 mb)
Winds: from the WSW (250 degrees) at 10 MPH (9 knots; 4.6 m/s)
Visibility: 6 or more miles (10+ km)
Ceiling: 5000 feet AGL
Clouds: few clouds at 3000 feet AGL
broken clouds at 5000 feet AGL
Weather: no significant weather observed at this time

METAR text: RJFR 061800Z 25009KT 9999 FEW030 BKN050 09/01 Q1022
Conditions at: RJFR (KITAKYUSHU/KOKUR, JP) observed 1800 UTC 06 December 2022
Temperature: 9.0°C (48°F)
Dewpoint: 1.0°C (34°F) [RH = 57%]
Pressure (altimeter): 30.18 inches Hg (1022.0 mb)
Winds: from the WSW (250 degrees) at 10 MPH (9 knots; 4.6 m/s)
Visibility: 6 or more miles (10+ km)
Ceiling: 5000 feet AGL
Clouds: few clouds at 3000 feet AGL
broken clouds at 5000 feet AGL
Weather: no significant weather observed at this time

METAR text: RJFR 061700Z 25009KT 9999 FEW040 SCT060 09/01 Q1022
Conditions at: RJFR (KITAKYUSHU/KOKUR, JP) observed 1700 UTC 06 December 2022
Temperature: 9.0°C (48°F)
Dewpoint: 1.0°C (34°F) [RH = 57%]
Pressure (altimeter): 30.18 inches Hg (1022.0 mb)
Winds: from the WSW (250 degrees) at 10 MPH (9 knots; 4.6 m/s)
Visibility: 6 or more miles (10+ km)
Ceiling: at least 12,000 feet AGL
Clouds: few clouds at 4000 feet AGL
scattered clouds at 6000 feet AGL
Weather: no significant weather observed at this time

METAR text: RJFR 061600Z 26011KT 9999 FEW040 BKN060 09/00 Q1022
Conditions at: RJFR (KITAKYUSHU/KOKUR, JP) observed 1600 UTC 06 December 2022
Temperature: 9.0°C (48°F)
Dewpoint: 0.0°C (32°F) [RH = 53%]
Pressure (altimeter): 30.18 inches Hg (1022.0 mb)
Winds: from the W (260 degrees) at 13 MPH (11 knots; 5.7 m/s)
Visibility: 6 or more miles (10+ km)
Ceiling: 6000 feet AGL
Clouds: few clouds at 4000 feet AGL
broken clouds at 6000 feet AGL
Weather: no significant weather observed at this time

METAR text: RJFR 061500Z 22009KT 9999 FEW040 BKN060 08/02 Q1022
Conditions at: RJFR (KITAKYUSHU/KOKUR, JP) observed 1500 UTC 06 December 2022
Temperature: 8.0°C (46°F)
Dewpoint: 2.0°C (36°F) [RH = 66%]
Pressure (altimeter): 30.18 inches Hg (1022.0 mb)
Winds: from the SW (220 degrees) at 10 MPH (9 knots; 4.6 m/s)
Visibility: 6 or more miles (10+ km)
Ceiling: 6000 feet AGL
Clouds: few clouds at 4000 feet AGL
broken clouds at 6000 feet AGL
Weather: no significant weather observed at this time

METAR text: RJFR 061400Z 24007KT 9999 SCT050 08/00 Q1022
Conditions at: RJFR (KITAKYUSHU/KOKUR, JP) observed 1400 UTC 06 December 2022
Temperature: 8.0°C (46°F)
Dewpoint: 0.0°C (32°F) [RH = 57%]
Pressure (altimeter): 30.18 inches Hg (1022.0 mb)
Winds: from the WSW (240 degrees) at 8 MPH (7 knots; 3.6 m/s)
Visibility: 6 or more miles (10+ km)
Ceiling: at least 12,000 feet AGL
Clouds: scattered clouds at 5000 feet AGL
Weather: no significant weather observed at this time

METAR text: RJFR 061300Z 25008KT 9999 FEW050 09/M00 Q1022
Conditions at: RJFR (KITAKYUSHU/KOKUR, JP) observed 1300 UTC 06 December 2022
Temperature: 9.0°C (48°F)
Dewpoint: 0.0°C (32°F) [RH = 53%]
Pressure (altimeter): 30.18 inches Hg (1022.0 mb)
Winds: from the WSW (250 degrees) at 9 MPH (8 knots; 4.1 m/s)
Visibility: 6 or more miles (10+ km)
Ceiling: at least 12,000 feet AGL
Clouds: few clouds at 5000 feet AGL
Weather: no significant weather observed at this time

METAR text: RJFR 061200Z 25011KT 9999 FEW050 09/01 Q1022
Conditions at: RJFR (KITAKYUSHU/KOKUR, JP) observed 1200 UTC 06 December 2022
Temperature: 9.0°C (48°F)
Dewpoint: 1.0°C (34°F) [RH = 57%]
Pressure (altimeter): 30.18 inches Hg (1022.0 mb)
Winds: from the WSW (250 degrees) at 13 MPH (11 knots; 5.7 m/s)
Visibility: 6 or more miles (10+ km)
Ceiling: at least 12,000 feet AGL
Clouds: few clouds at 5000 feet AGL
Weather: no significant weather observed at this time

METAR text: RJFR 061100Z 26013KT 9999 FEW035 SCT050 09/00 Q1022
Conditions at: RJFR (KITAKYUSHU/KOKUR, JP) observed 1100 UTC 06 December 2022
Temperature: 9.0°C (48°F)
Dewpoint: 0.0°C (32°F) [RH = 53%]
Pressure (altimeter): 30.18 inches Hg (1022.0 mb)
Winds: from the W (260 degrees) at 15 MPH (13 knots; 6.7 m/s)
Visibility: 6 or more miles (10+ km)
Ceiling: at least 12,000 feet AGL
Clouds: few clouds at 3500 feet AGL
scattered clouds at 5000 feet AGL
Weather: no significant weather observed at this time

METAR text: RJFR 061000Z 26012KT 9999 FEW035 SCT050 09/M00 Q1022
Conditions at: RJFR (KITAKYUSHU/KOKUR, JP) observed 1000 UTC 06 December 2022
Temperature: 9.0°C (48°F)
Dewpoint: 0.0°C (32°F) [RH = 53%]
Pressure (altimeter): 30.18 inches Hg (1022.0 mb)
Winds: from the W (260 degrees) at 14 MPH (12 knots; 6.2 m/s)
Visibility: 6 or more miles (10+ km)
Ceiling: at least 12,000 feet AGL
Clouds: few clouds at 3500 feet AGL
scattered clouds at 5000 feet AGL
Weather: no significant weather observed at this time

METAR text: RJFR 060900Z 24008KT 9999 FEW035 SCT060 09/M02 Q1022
Conditions at: RJFR (KITAKYUSHU/KOKUR, JP) observed 0900 UTC 06 December 2022
Temperature: 9.0°C (48°F)
Dewpoint: -2.0°C (28°F) [RH = 46%]
Pressure (altimeter): 30.18 inches Hg (1022.0 mb)
Winds: from the WSW (240 degrees) at 9 MPH (8 knots; 4.1 m/s)
Visibility: 6 or more miles (10+ km)
Ceiling: at least 12,000 feet AGL
Clouds: few clouds at 3500 feet AGL
scattered clouds at 6000 feet AGL
Weather: no significant weather observed at this time

METAR text: RJFR 060800Z 26014KT 9999 FEW035 09/M03 Q1022
Conditions at: RJFR (KITAKYUSHU/KOKUR, JP) observed 0800 UTC 06 December 2022
Temperature: 9.0°C (48°F)
Dewpoint: -3.0°C (27°F) [RH = 43%]
Pressure (altimeter): 30.18 inches Hg (1022.0 mb)
Winds: from the W (260 degrees) at 16 MPH (14 knots; 7.2 m/s)
Visibility: 6 or more miles (10+ km)
Ceiling: at least 12,000 feet AGL
Clouds: few clouds at 3500 feet AGL
Weather: no significant weather observed at this time

METAR text: RJFR 060700Z 27010KT 250V310 9999 FEW030 BKN050 10/M02 Q1021
Conditions at: RJFR (KITAKYUSHU/KOKUR, JP) observed 0700 UTC 06 December 2022
Temperature: 10.0°C (50°F)
Dewpoint: -2.0°C (28°F) [RH = 43%]
Pressure (altimeter): 30.15 inches Hg (1021.0 mb)
Winds: from the W (270 degrees) at 12 MPH (10 knots; 5.1 m/s)
Visibility: 6 or more miles (10+ km)
Ceiling: 5000 feet AGL
Clouds: few clouds at 3000 feet AGL
broken clouds at 5000 feet AGL
Weather: no significant weather observed at this time

METAR text: RJFR 060600Z 30015KT 9999 FEW030 BKN050 10/M02 Q1021
Conditions at: RJFR (KITAKYUSHU/KOKUR, JP) observed 0600 UTC 06 December 2022
Temperature: 10.0°C (50°F)
Dewpoint: -2.0°C (28°F) [RH = 43%]
Pressure (altimeter): 30.15 inches Hg (1021.0 mb)
Winds: from the WNW (300 degrees) at 17 MPH (15 knots; 7.7 m/s)
Visibility: 6 or more miles (10+ km)
Ceiling: 5000 feet AGL
Clouds: few clouds at 3000 feet AGL
broken clouds at 5000 feet AGL
Weather: no significant weather observed at this time

METAR text: RJFR 060500Z 30012KT 9999 FEW030 BKN045 BKN060 09/M01 Q1021
Conditions at: RJFR (KITAKYUSHU/KOKUR, JP) observed 0500 UTC 06 December 2022
Temperature: 9.0°C (48°F)
Dewpoint: -1.0°C (30°F) [RH = 49%]
Pressure (altimeter): 30.15 inches Hg (1021.0 mb)
Winds: from the WNW (300 degrees) at 14 MPH (12 knots; 6.2 m/s)
Visibility: 6 or more miles (10+ km)
Ceiling: 4500 feet AGL
Clouds: few clouds at 3000 feet AGL
broken clouds at 4500 feet AGL
broken clouds at 6000 feet AGL
Weather: no significant weather observed at this time

METAR text: RJFR 060400Z 31014KT 9999 FEW030 BKN050 09/M01 Q1022
Conditions at: RJFR (KITAKYUSHU/KOKUR, JP) observed 0400 UTC 06 December 2022
Temperature: 9.0°C (48°F)
Dewpoint: -1.0°C (30°F) [RH = 49%]
Pressure (altimeter): 30.18 inches Hg (1022.0 mb)
Winds: from the NW (310 degrees) at 16 MPH (14 knots; 7.2 m/s)
Visibility: 6 or more miles (10+ km)
Ceiling: 5000 feet AGL
Clouds: few clouds at 3000 feet AGL
broken clouds at 5000 feet AGL
Weather: no significant weather observed at this time

METAR text: RJFR 060329Z 32016G26KT 9999 FEW030 BKN050 10/M02 Q1022 RMK 1CU030 6SC050 A3019
Conditions at: RJFR (KITAKYUSHU/KOKUR, JP) observed 0329 UTC 06 December 2022
Temperature: 10.0°C (50°F)
Dewpoint: -2.0°C (28°F) [RH = 43%]
Pressure (altimeter): 30.18 inches Hg (1022.0 mb)
Winds: from the NW (320 degrees) at 18 MPH (16 knots; 8.2 m/s)
gusting to 30 MPH (26 knots; 13.4 m/s)
Visibility: 6 or more miles (10+ km)
Ceiling: 5000 feet AGL
Clouds: few clouds at 3000 feet AGL
broken clouds at 5000 feet AGL
Weather: no significant weather observed at this time

METAR text: RJFR 060300Z 30015KT 9999 FEW025 BKN050 10/M01 Q1022
Conditions at: RJFR (KITAKYUSHU/KOKUR, JP) observed 0300 UTC 06 December 2022
Temperature: 10.0°C (50°F)
Dewpoint: -1.0°C (30°F) [RH = 46%]
Pressure (altimeter): 30.18 inches Hg (1022.0 mb)
Winds: from the WNW (300 degrees) at 17 MPH (15 knots; 7.7 m/s)
Visibility: 6 or more miles (10+ km)
Ceiling: 5000 feet AGL
Clouds: few clouds at 2500 feet AGL
broken clouds at 5000 feet AGL
Weather: no significant weather observed at this time

METAR text: RJFR 060200Z 31017KT 9999 FEW025 BKN050 10/M03 Q1023
Conditions at: RJFR (KITAKYUSHU/KOKUR, JP) observed 0200 UTC 06 December 2022
Temperature: 10.0°C (50°F)
Dewpoint: -3.0°C (27°F) [RH = 40%]
Pressure (altimeter): 30.21 inches Hg (1023.0 mb)
Winds: from the NW (310 degrees) at 20 MPH (17 knots; 8.7 m/s)
Visibility: 6 or more miles (10+ km)
Ceiling: 5000 feet AGL
Clouds: few clouds at 2500 feet AGL
broken clouds at 5000 feet AGL
Weather: no significant weather observed at this time

METAR text: RJFR 060100Z 30015KT 9999 FEW025 BKN060 10/M02 Q1023
Conditions at: RJFR (KITAKYUSHU/KOKUR, JP) observed 0100 UTC 06 December 2022
Temperature: 10.0°C (50°F)
Dewpoint: -2.0°C (28°F) [RH = 43%]
Pressure (altimeter): 30.21 inches Hg (1023.0 mb)
Winds: from the WNW (300 degrees) at 17 MPH (15 knots; 7.7 m/s)
Visibility: 6 or more miles (10+ km)
Ceiling: 6000 feet AGL
Clouds: few clouds at 2500 feet AGL
broken clouds at 6000 feet AGL
Weather: no significant weather observed at this time

METAR text: RJFR 060000Z 31014KT 9999 FEW025 BKN050 09/M00 Q1023
Conditions at: RJFR (KITAKYUSHU/KOKUR, JP) observed 0000 UTC 06 December 2022
Temperature: 9.0°C (48°F)
Dewpoint: 0.0°C (32°F) [RH = 53%]
Pressure (altimeter): 30.21 inches Hg (1023.0 mb)
Winds: from the NW (310 degrees) at 16 MPH (14 knots; 7.2 m/s)
Visibility: 6 or more miles (10+ km)
Ceiling: 5000 feet AGL
Clouds: few clouds at 2500 feet AGL
broken clouds at 5000 feet AGL
Weather: no significant weather observed at this time

METAR text: RJFR 052300Z 32015KT 9999 FEW025 BKN050 08/01 Q1022
Conditions at: RJFR (KITAKYUSHU/KOKUR, JP) observed 2300 UTC 05 December 2022
Temperature: 8.0°C (46°F)
Dewpoint: 1.0°C (34°F) [RH = 61%]
Pressure (altimeter): 30.18 inches Hg (1022.0 mb)
Winds: from the NW (320 degrees) at 17 MPH (15 knots; 7.7 m/s)
Visibility: 6 or more miles (10+ km)
Ceiling: 5000 feet AGL
Clouds: few clouds at 2500 feet AGL
broken clouds at 5000 feet AGL
Weather: no significant weather observed at this time

Forecast for: AMD
Text: TAF AMD RJFR 070724Z 0707/0812 27015KT 9999 FEW030
Forecast period: 0700 UTC 07 December 2022 to 1200 UTC 08 December 2022
Forecast type: FROM: standard forecast or significant change
Winds: from the W (270 degrees) at 17 MPH (15 knots; 7.7 m/s)
Visibility: 6 or more miles (10+ km)
Ceiling: at least 12,000 feet AGL
Clouds: few clouds at 3000 feet AGL
Weather: no significant weather forecast for this period
Text: TEMPO 0707/0709 27017G28KT
Forecast period: 0700 to 0900 UTC 07 December 2022
Forecast type: TEMPORARY: The following changes expected for less than half the time period
Winds: from the W (270 degrees) at 20 MPH (17 knots; 8.7 m/s)
gusting to 32 MPH (28 knots; 14.4 m/s)
Visibility: missing
Ceiling: unknown
Clouds: missing
Weather: no significant weather forecast for this period